sensor_id;sensor_type;location;lat;lon;timestamp;pressure;altitude;pressure_sealevel;temperature;humidity
15817;BME280;8009;50.070;8.232;2023-03-13T00:02:12;99328.97;;;6.72;80.65
15817;BME280;8009;50.070;8.232;2023-03-13T00:04:41;99326.19;;;6.61;81.36
15817;BME280;8009;50.070;8.232;2023-03-13T00:07:09;99325.00;;;6.65;81.20
15817;BME280;8009;50.070;8.232;2023-03-13T00:09:39;99325.22;;;6.62;80.94
15817;BME280;8009;50.070;8.232;2023-03-13T00:12:08;99324.91;;;6.66;81.09
15817;BME280;8009;50.070;8.232;2023-03-13T00:14:36;99326.63;;;6.42;82.05
15817;BME280;8009;50.070;8.232;2023-03-13T00:17:05;99318.78;;;6.51;81.79
15817;BME280;8009;50.070;8.232;2023-03-13T00:19:37;99313.75;;;6.47;81.99
15817;BME280;8009;50.070;8.232;2023-03-13T00:22:07;99320.69;;;6.37;82.32
15817;BME280;8009;50.070;8.232;2023-03-13T00:24:36;99311.25;;;6.44;82.41
15817;BME280;8009;50.070;8.232;2023-03-13T00:27:04;99304.75;;;6.61;81.33
15817;BME280;8009;50.070;8.232;2023-03-13T00:29:33;99293.44;;;6.81;80.62
15817;BME280;8009;50.070;8.232;2023-03-13T00:32:02;99292.06;;;6.75;80.93
15817;BME280;8009;50.070;8.232;2023-03-13T00:34:30;99288.97;;;6.69;81.35
15817;BME280;8009;50.070;8.232;2023-03-13T00:37:01;99276.91;;;6.87;80.79
15817;BME280;8009;50.070;8.232;2023-03-13T00:39:29;99288.81;;;6.96;80.55
15817;BME280;8009;50.070;8.232;2023-03-13T00:41:58;99267.25;;;6.84;80.65
15817;BME280;8009;50.070;8.232;2023-03-13T00:44:28;99273.34;;;6.87;80.94
15817;BME280;8009;50.070;8.232;2023-03-13T00:46:57;99260.91;;;6.86;80.83
15817;BME280;8009;50.070;8.232;2023-03-13T00:49:27;99252.41;;;6.92;80.45
15817;BME280;8009;50.070;8.232;2023-03-13T00:51:57;99243.72;;;6.88;80.97
15817;BME280;8009;50.070;8.232;2023-03-13T00:54:28;99244.81;;;6.86;81.08
15817;BME280;8009;50.070;8.232;2023-03-13T00:56:59;99242.06;;;6.62;81.62
15817;BME280;8009;50.070;8.232;2023-03-13T00:59:27;99228.75;;;6.73;81.41
15817;BME280;8009;50.070;8.232;2023-03-13T01:01:55;99231.63;;;6.70;81.55
15817;BME280;8009;50.070;8.232;2023-03-13T01:04:24;99219.84;;;6.72;81.87
15817;BME280;8009;50.070;8.232;2023-03-13T01:06:52;99218.56;;;6.65;81.66
15817;BME280;8009;50.070;8.232;2023-03-13T01:09:21;99214.25;;;6.75;81.40
15817;BME280;8009;50.070;8.232;2023-03-13T01:11:52;99213.44;;;6.99;80.94
15817;BME280;8009;50.070;8.232;2023-03-13T01:14:20;99207.94;;;6.64;81.92
15817;BME280;8009;50.070;8.232;2023-03-13T01:16:48;99205.25;;;6.64;81.74
15817;BME280;8009;50.070;8.232;2023-03-13T01:19:19;99200.72;;;6.77;81.60
15817;BME280;8009;50.070;8.232;2023-03-13T01:21:47;99205.38;;;6.62;81.96
15817;BME280;8009;50.070;8.232;2023-03-13T01:24:15;99197.59;;;6.83;81.52
15817;BME280;8009;50.070;8.232;2023-03-13T01:26:44;99194.66;;;6.86;81.39
15817;BME280;8009;50.070;8.232;2023-03-13T01:29:16;99190.56;;;6.93;81.00
15817;BME280;8009;50.070;8.232;2023-03-13T01:31:44;99185.41;;;7.03;80.63
15817;BME280;8009;50.070;8.232;2023-03-13T01:34:12;99177.97;;;6.70;81.99
15817;BME280;8009;50.070;8.232;2023-03-13T01:36:41;99182.38;;;6.71;82.02
15817;BME280;8009;50.070;8.232;2023-03-13T01:39:11;99173.59;;;6.69;82.36
15817;BME280;8009;50.070;8.232;2023-03-13T01:41:39;99162.81;;;6.81;81.08
15817;BME280;8009;50.070;8.232;2023-03-13T01:44:20;99161.19;;;6.79;81.89
15817;BME280;8009;50.070;8.232;2023-03-13T01:46:49;99156.19;;;6.74;81.78
15817;BME280;8009;50.070;8.232;2023-03-13T01:49:18;99156.50;;;7.06;81.00
15817;BME280;8009;50.070;8.232;2023-03-13T01:51:49;99156.72;;;6.79;81.84
15817;BME280;8009;50.070;8.232;2023-03-13T01:54:20;99145.34;;;7.00;81.37
15817;BME280;8009;50.070;8.232;2023-03-13T01:56:53;99139.72;;;6.92;81.27
15817;BME280;8009;50.070;8.232;2023-03-13T01:59:29;99137.84;;;7.16;80.90
15817;BME280;8009;50.070;8.232;2023-03-13T02:02:02;99131.56;;;7.28;80.01
15817;BME280;8009;50.070;8.232;2023-03-13T02:04:35;99129.63;;;7.30;79.72
15817;BME280;8009;50.070;8.232;2023-03-13T02:07:08;99125.06;;;7.20;80.02
15817;BME280;8009;50.070;8.232;2023-03-13T02:09:39;99120.72;;;7.30;79.67
15817;BME280;8009;50.070;8.232;2023-03-13T02:12:12;99116.50;;;7.15;80.64
15817;BME280;8009;50.070;8.232;2023-03-13T02:14:45;99113.50;;;7.30;79.97
15817;BME280;8009;50.070;8.232;2023-03-13T02:17:16;99109.22;;;7.28;80.00
15817;BME280;8009;50.070;8.232;2023-03-13T02:19:46;99107.03;;;7.22;80.96
15817;BME280;8009;50.070;8.232;2023-03-13T02:22:22;99091.13;;;7.19;81.44
15817;BME280;8009;50.070;8.232;2023-03-13T02:24:55;99084.91;;;7.18;81.15
15817;BME280;8009;50.070;8.232;2023-03-13T02:27:28;99071.25;;;7.32;80.93
15817;BME280;8009;50.070;8.232;2023-03-13T02:29:57;99077.84;;;7.28;80.84
15817;BME280;8009;50.070;8.232;2023-03-13T02:32:28;99077.59;;;7.20;81.29
15817;BME280;8009;50.070;8.232;2023-03-13T02:35:01;99084.28;;;7.15;81.93
15817;BME280;8009;50.070;8.232;2023-03-13T02:37:32;99078.13;;;7.01;82.28
15817;BME280;8009;50.070;8.232;2023-03-13T02:40:03;99065.53;;;7.26;81.85
15817;BME280;8009;50.070;8.232;2023-03-13T02:42:37;99063.50;;;7.05;82.33
15817;BME280;8009;50.070;8.232;2023-03-13T02:45:07;99051.72;;;7.19;82.29
15817;BME280;8009;50.070;8.232;2023-03-13T02:47:36;99056.13;;;7.31;82.03
15817;BME280;8009;50.070;8.232;2023-03-13T02:50:06;99046.88;;;7.36;81.93
15817;BME280;8009;50.070;8.232;2023-03-13T02:52:37;99034.78;;;7.30;82.02
15817;BME280;8009;50.070;8.232;2023-03-13T02:55:10;99029.66;;;7.38;81.69
15817;BME280;8009;50.070;8.232;2023-03-13T02:57:44;99020.16;;;7.45;81.55
15817;BME280;8009;50.070;8.232;2023-03-13T03:00:13;99015.03;;;7.42;81.63
15817;BME280;8009;50.070;8.232;2023-03-13T03:02:42;99011.34;;;7.43;81.26
15817;BME280;8009;50.070;8.232;2023-03-13T03:05:11;99006.13;;;7.42;81.85
15817;BME280;8009;50.070;8.232;2023-03-13T03:07:40;99011.34;;;7.32;82.22
15817;BME280;8009;50.070;8.232;2023-03-13T03:10:09;99012.94;;;7.46;81.74
15817;BME280;8009;50.070;8.232;2023-03-13T03:12:38;99006.34;;;7.39;82.59
15817;BME280;8009;50.070;8.232;2023-03-13T03:15:10;99004.66;;;7.38;82.90
15817;BME280;8009;50.070;8.232;2023-03-13T03:17:38;98999.75;;;7.31;82.97
15817;BME280;8009;50.070;8.232;2023-03-13T03:20:08;99008.91;;;7.40;83.06
15817;BME280;8009;50.070;8.232;2023-03-13T03:22:37;99008.06;;;7.40;83.00
15817;BME280;8009;50.070;8.232;2023-03-13T03:25:07;99008.56;;;7.45;83.69
15817;BME280;8009;50.070;8.232;2023-03-13T03:27:35;99011.00;;;7.59;82.85
15817;BME280;8009;50.070;8.232;2023-03-13T03:30:05;99014.06;;;7.54;83.69
15817;BME280;8009;50.070;8.232;2023-03-13T03:32:36;99012.72;;;7.60;83.71
15817;BME280;8009;50.070;8.232;2023-03-13T03:35:06;99009.19;;;7.60;83.31
15817;BME280;8009;50.070;8.232;2023-03-13T03:37:35;99004.91;;;7.57;83.47
15817;BME280;8009;50.070;8.232;2023-03-13T03:40:06;99001.38;;;7.68;85.68
15817;BME280;8009;50.070;8.232;2023-03-13T03:42:35;98999.41;;;7.58;83.60
15817;BME280;8009;50.070;8.232;2023-03-13T03:45:04;98992.06;;;7.38;85.66
15817;BME280;8009;50.070;8.232;2023-03-13T03:47:32;98991.59;;;7.67;84.51
15817;BME280;8009;50.070;8.232;2023-03-13T03:50:06;98987.03;;;7.90;83.71
15817;BME280;8009;50.070;8.232;2023-03-13T03:52:36;98979.97;;;7.89;84.81
15817;BME280;8009;50.070;8.232;2023-03-13T03:55:05;98977.19;;;7.90;84.42
15817;BME280;8009;50.070;8.232;2023-03-13T03:57:33;98970.81;;;7.91;83.65
15817;BME280;8009;50.070;8.232;2023-03-13T04:00:02;98977.78;;;7.94;84.40
15817;BME280;8009;50.070;8.232;2023-03-13T04:02:32;98970.44;;;7.85;84.34
15817;BME280;8009;50.070;8.232;2023-03-13T04:05:04;98964.38;;;7.82;84.88
15817;BME280;8009;50.070;8.232;2023-03-13T04:07:33;98973.03;;;7.86;85.06
15817;BME280;8009;50.070;8.232;2023-03-13T04:10:01;98969.72;;;7.82;84.18
15817;BME280;8009;50.070;8.232;2023-03-13T04:12:29;98970.47;;;7.73;85.57
15817;BME280;8009;50.070;8.232;2023-03-13T04:14:58;98971.44;;;7.84;85.41
15817;BME280;8009;50.070;8.232;2023-03-13T04:17:26;98964.59;;;7.91;85.23
15817;BME280;8009;50.070;8.232;2023-03-13T04:19:55;98958.00;;;7.72;84.90
15817;BME280;8009;50.070;8.232;2023-03-13T04:22:26;98946.03;;;7.88;84.76
15817;BME280;8009;50.070;8.232;2023-03-13T04:24:55;98932.50;;;7.55;85.71
15817;BME280;8009;50.070;8.232;2023-03-13T04:27:25;98931.00;;;7.85;85.72
15817;BME280;8009;50.070;8.232;2023-03-13T04:29:54;98940.06;;;7.73;85.95
15817;BME280;8009;50.070;8.232;2023-03-13T04:32:24;98939.44;;;7.80;85.12
15817;BME280;8009;50.070;8.232;2023-03-13T04:34:55;98934.66;;;7.84;86.03
15817;BME280;8009;50.070;8.232;2023-03-13T04:37:26;98918.94;;;7.68;86.66
15817;BME280;8009;50.070;8.232;2023-03-13T04:39:54;98897.53;;;7.78;87.23
15817;BME280;8009;50.070;8.232;2023-03-13T04:42:22;98897.88;;;7.85;87.61
15817;BME280;8009;50.070;8.232;2023-03-13T04:44:51;98906.81;;;7.85;87.11
15817;BME280;8009;50.070;8.232;2023-03-13T04:47:19;98914.34;;;8.02;87.27
15817;BME280;8009;50.070;8.232;2023-03-13T04:49:47;98906.34;;;8.12;87.45
15817;BME280;8009;50.070;8.232;2023-03-13T04:52:16;98906.09;;;8.15;88.85
15817;BME280;8009;50.070;8.232;2023-03-13T04:54:47;98903.53;;;8.25;88.87
15817;BME280;8009;50.070;8.232;2023-03-13T04:57:15;98908.69;;;8.70;88.63
15817;BME280;8009;50.070;8.232;2023-03-13T04:59:43;98897.56;;;8.74;88.44
15817;BME280;8009;50.070;8.232;2023-03-13T05:02:12;98898.34;;;8.86;88.37
15817;BME280;8009;50.070;8.232;2023-03-13T05:04:40;98894.25;;;8.92;87.89
15817;BME280;8009;50.070;8.232;2023-03-13T05:07:08;98890.56;;;8.93;88.67
15817;BME280;8009;50.070;8.232;2023-03-13T05:09:37;98876.41;;;8.91;89.32
15817;BME280;8009;50.070;8.232;2023-03-13T05:12:08;98863.72;;;9.02;89.02
15817;BME280;8009;50.070;8.232;2023-03-13T05:14:39;98856.66;;;9.11;88.95
15817;BME280;8009;50.070;8.232;2023-03-13T05:17:07;98863.50;;;9.15;89.40
15817;BME280;8009;50.070;8.232;2023-03-13T05:19:37;98865.97;;;9.28;88.15
15817;BME280;8009;50.070;8.232;2023-03-13T05:22:05;98863.97;;;9.30;89.08
15817;BME280;8009;50.070;8.232;2023-03-13T05:24:33;98863.47;;;9.06;89.00
15817;BME280;8009;50.070;8.232;2023-03-13T05:27:02;98845.22;;;9.19;90.04
15817;BME280;8009;50.070;8.232;2023-03-13T05:29:33;98833.00;;;9.15;90.01
15817;BME280;8009;50.070;8.232;2023-03-13T05:32:01;98840.56;;;9.21;89.70
15817;BME280;8009;50.070;8.232;2023-03-13T05:34:30;98852.53;;;9.38;89.41
15817;BME280;8009;50.070;8.232;2023-03-13T05:36:58;98862.19;;;9.10;90.06
15817;BME280;8009;50.070;8.232;2023-03-13T05:39:26;98861.44;;;9.28;89.61
15817;BME280;8009;50.070;8.232;2023-03-13T05:41:55;98858.81;;;9.48;89.91
15817;BME280;8009;50.070;8.232;2023-03-13T05:44:23;98857.59;;;9.62;89.11
15817;BME280;8009;50.070;8.232;2023-03-13T05:46:54;98857.81;;;9.49;89.13
15817;BME280;8009;50.070;8.232;2023-03-13T05:49:23;98867.78;;;9.68;89.57
15817;BME280;8009;50.070;8.232;2023-03-13T05:51:51;98859.16;;;9.74;90.15
15817;BME280;8009;50.070;8.232;2023-03-13T05:54:20;98855.91;;;9.70;89.73
15817;BME280;8009;50.070;8.232;2023-03-13T05:56:48;98860.16;;;9.73;90.15
15817;BME280;8009;50.070;8.232;2023-03-13T05:59:17;98847.66;;;9.72;90.87
15817;BME280;8009;50.070;8.232;2023-03-13T06:01:45;98825.13;;;9.83;90.39
15817;BME280;8009;50.070;8.232;2023-03-13T06:04:16;98833.94;;;9.85;90.80
15817;BME280;8009;50.070;8.232;2023-03-13T06:06:48;98818.03;;;9.82;90.29
15817;BME280;8009;50.070;8.232;2023-03-13T06:09:17;98813.63;;;9.90;90.67
15817;BME280;8009;50.070;8.232;2023-03-13T06:11:46;98824.84;;;9.95;90.89
15817;BME280;8009;50.070;8.232;2023-03-13T06:14:14;98823.72;;;9.98;90.48
15817;BME280;8009;50.070;8.232;2023-03-13T06:16:43;98831.84;;;10.08;90.73
15817;BME280;8009;50.070;8.232;2023-03-13T06:19:11;98835.50;;;10.07;90.24
15817;BME280;8009;50.070;8.232;2023-03-13T06:21:42;98832.53;;;10.10;89.93
15817;BME280;8009;50.070;8.232;2023-03-13T06:24:10;98836.22;;;10.09;89.45
15817;BME280;8009;50.070;8.232;2023-03-13T06:26:39;98835.66;;;10.05;90.73
15817;BME280;8009;50.070;8.232;2023-03-13T06:29:07;98826.84;;;10.03;90.72
15817;BME280;8009;50.070;8.232;2023-03-13T06:31:36;98832.09;;;10.14;90.37
15817;BME280;8009;50.070;8.232;2023-03-13T06:34:08;98837.06;;;10.09;90.29
15817;BME280;8009;50.070;8.232;2023-03-13T06:36:37;98836.78;;;10.12;90.91
15817;BME280;8009;50.070;8.232;2023-03-13T06:39:09;98835.97;;;10.31;89.84
15817;BME280;8009;50.070;8.232;2023-03-13T06:41:43;98834.69;;;10.35;89.59
15817;BME280;8009;50.070;8.232;2023-03-13T06:44:11;98826.72;;;10.43;88.99
15817;BME280;8009;50.070;8.232;2023-03-13T06:46:39;98825.88;;;10.33;90.04
15817;BME280;8009;50.070;8.232;2023-03-13T06:49:08;98817.50;;;10.36;90.02
15817;BME280;8009;50.070;8.232;2023-03-13T06:51:37;98810.25;;;10.37;89.92
15817;BME280;8009;50.070;8.232;2023-03-13T06:54:08;98807.69;;;10.45;89.71
15817;BME280;8009;50.070;8.232;2023-03-13T06:56:36;98811.94;;;10.47;89.67
15817;BME280;8009;50.070;8.232;2023-03-13T06:59:04;98809.53;;;10.54;89.19
15817;BME280;8009;50.070;8.232;2023-03-13T07:01:33;98812.22;;;10.54;89.23
15817;BME280;8009;50.070;8.232;2023-03-13T07:04:02;98802.28;;;10.55;89.49
15817;BME280;8009;50.070;8.232;2023-03-13T07:06:31;98806.56;;;10.57;89.83
15817;BME280;8009;50.070;8.232;2023-03-13T07:08:59;98812.19;;;10.64;89.82
15817;BME280;8009;50.070;8.232;2023-03-13T07:11:31;98803.09;;;10.74;88.97
15817;BME280;8009;50.070;8.232;2023-03-13T07:13:59;98811.59;;;10.80;88.79
15817;BME280;8009;50.070;8.232;2023-03-13T07:16:28;98818.88;;;10.69;87.57
15817;BME280;8009;50.070;8.232;2023-03-13T07:18:56;98822.59;;;10.68;88.76
15817;BME280;8009;50.070;8.232;2023-03-13T07:21:25;98812.88;;;10.85;88.52
15817;BME280;8009;50.070;8.232;2023-03-13T07:23:53;98819.97;;;10.86;88.53
15817;BME280;8009;50.070;8.232;2023-03-13T07:26:21;98813.88;;;10.84;88.81
15817;BME280;8009;50.070;8.232;2023-03-13T07:28:52;98815.56;;;10.85;88.94
15817;BME280;8009;50.070;8.232;2023-03-13T07:31:21;98815.78;;;11.02;88.44
15817;BME280;8009;50.070;8.232;2023-03-13T07:33:50;98819.41;;;10.83;88.88
15817;BME280;8009;50.070;8.232;2023-03-13T07:36:21;98823.81;;;10.84;88.82
15817;BME280;8009;50.070;8.232;2023-03-13T07:38:50;98817.13;;;10.88;88.99
15817;BME280;8009;50.070;8.232;2023-03-13T07:41:19;98817.78;;;11.00;88.60
15817;BME280;8009;50.070;8.232;2023-03-13T07:43:48;98819.50;;;11.01;88.74
15817;BME280;8009;50.070;8.232;2023-03-13T07:46:19;98819.50;;;11.01;88.60
15817;BME280;8009;50.070;8.232;2023-03-13T07:48:47;98812.34;;;10.62;89.12
15817;BME280;8009;50.070;8.232;2023-03-13T07:51:19;98813.47;;;10.69;88.86
15817;BME280;8009;50.070;8.232;2023-03-13T07:53:47;98819.97;;;10.86;88.54
15817;BME280;8009;50.070;8.232;2023-03-13T07:56:17;98816.44;;;10.76;86.14
15817;BME280;8009;50.070;8.232;2023-03-13T07:58:46;98826.06;;;10.88;88.17
15817;BME280;8009;50.070;8.232;2023-03-13T08:01:19;98833.44;;;10.96;85.78
15817;BME280;8009;50.070;8.232;2023-03-13T08:03:48;98834.56;;;11.03;86.60
15817;BME280;8009;50.070;8.232;2023-03-13T08:06:18;98832.59;;;10.95;87.96
15817;BME280;8009;50.070;8.232;2023-03-13T08:08:48;98838.78;;;11.06;83.20
15817;BME280;8009;50.070;8.232;2023-03-13T08:11:18;98831.34;;;11.27;87.40
15817;BME280;8009;50.070;8.232;2023-03-13T08:13:47;98834.59;;;11.31;87.37
15817;BME280;8009;50.070;8.232;2023-03-13T08:16:20;98825.81;;;11.19;87.33
15817;BME280;8009;50.070;8.232;2023-03-13T08:18:51;98837.41;;;11.39;87.15
15817;BME280;8009;50.070;8.232;2023-03-13T08:21:21;98838.72;;;11.25;86.55
15817;BME280;8009;50.070;8.232;2023-03-13T08:23:52;98835.84;;;11.36;87.53
15817;BME280;8009;50.070;8.232;2023-03-13T08:26:24;98836.34;;;11.50;86.68
15817;BME280;8009;50.070;8.232;2023-03-13T08:28:56;98846.53;;;11.28;86.97
15817;BME280;8009;50.070;8.232;2023-03-13T08:31:31;98843.00;;;11.55;87.68
15817;BME280;8009;50.070;8.232;2023-03-13T08:34:00;98848.03;;;11.40;87.61
15817;BME280;8009;50.070;8.232;2023-03-13T08:36:30;98854.00;;;11.44;88.16
15817;BME280;8009;50.070;8.232;2023-03-13T08:39:00;98872.34;;;11.50;88.30
15817;BME280;8009;50.070;8.232;2023-03-13T08:41:31;98874.94;;;11.42;88.62
15817;BME280;8009;50.070;8.232;2023-03-13T08:44:01;98881.28;;;11.51;88.32
15817;BME280;8009;50.070;8.232;2023-03-13T08:46:34;98876.56;;;11.25;89.05
15817;BME280;8009;50.070;8.232;2023-03-13T08:49:04;98865.97;;;11.41;89.30
15817;BME280;8009;50.070;8.232;2023-03-13T08:51:33;98858.97;;;11.49;88.52
15817;BME280;8009;50.070;8.232;2023-03-13T08:54:02;98856.50;;;11.55;89.24
15817;BME280;8009;50.070;8.232;2023-03-13T08:56:31;98850.66;;;11.60;88.82
15817;BME280;8009;50.070;8.232;2023-03-13T08:59:01;98852.28;;;11.53;88.67
15817;BME280;8009;50.070;8.232;2023-03-13T09:01:34;98845.69;;;11.55;88.98
15817;BME280;8009;50.070;8.232;2023-03-13T09:04:06;98844.25;;;11.61;89.16
15817;BME280;8009;50.070;8.232;2023-03-13T09:06:36;98839.53;;;11.63;88.10
15817;BME280;8009;50.070;8.232;2023-03-13T09:09:06;98847.75;;;11.71;88.37
15817;BME280;8009;50.070;8.232;2023-03-13T09:11:35;98842.03;;;11.74;88.58
15817;BME280;8009;50.070;8.232;2023-03-13T09:14:05;98844.34;;;11.69;88.30
15817;BME280;8009;50.070;8.232;2023-03-13T09:16:36;98836.78;;;11.73;88.52
15817;BME280;8009;50.070;8.232;2023-03-13T09:19:04;98824.50;;;11.78;88.23
15817;BME280;8009;50.070;8.232;2023-03-13T09:21:34;98827.31;;;11.59;88.66
15817;BME280;8009;50.070;8.232;2023-03-13T09:24:03;98821.25;;;11.75;88.02
15817;BME280;8009;50.070;8.232;2023-03-13T09:26:31;98828.94;;;11.79;87.59
15817;BME280;8009;50.070;8.232;2023-03-13T09:29:00;98812.28;;;11.84;87.72
15817;BME280;8009;50.070;8.232;2023-03-13T09:31:30;98817.09;;;11.80;87.55
15817;BME280;8009;50.070;8.232;2023-03-13T09:34:01;98815.06;;;11.82;87.38
15817;BME280;8009;50.070;8.232;2023-03-13T09:36:29;98810.41;;;11.84;87.48
15817;BME280;8009;50.070;8.232;2023-03-13T09:38:59;98800.44;;;11.85;87.55
15817;BME280;8009;50.070;8.232;2023-03-13T09:41:33;98799.59;;;11.84;87.48
15817;BME280;8009;50.070;8.232;2023-03-13T09:44:06;98799.22;;;11.69;88.19
15817;BME280;8009;50.070;8.232;2023-03-13T09:46:46;98788.84;;;11.92;86.75
15817;BME280;8009;50.070;8.232;2023-03-13T09:49:27;98792.56;;;11.91;86.90
15817;BME280;8009;50.070;8.232;2023-03-13T09:52:01;98785.00;;;11.95;87.03
15817;BME280;8009;50.070;8.232;2023-03-13T09:54:37;98784.59;;;11.90;86.73
15817;BME280;8009;50.070;8.232;2023-03-13T09:57:14;98786.63;;;11.88;87.12
15817;BME280;8009;50.070;8.232;2023-03-13T09:59:48;98771.47;;;11.95;86.61
15817;BME280;8009;50.070;8.232;2023-03-13T10:02:29;98777.44;;;11.99;86.02
15817;BME280;8009;50.070;8.232;2023-03-13T10:05:14;98778.44;;;11.70;87.91
15817;BME280;8009;50.070;8.232;2023-03-13T10:07:44;98772.44;;;11.76;87.85
15817;BME280;8009;50.070;8.232;2023-03-13T10:10:18;98772.25;;;11.87;87.39
15817;BME280;8009;50.070;8.232;2023-03-13T10:12:52;98771.81;;;11.82;87.67
15817;BME280;8009;50.070;8.232;2023-03-13T10:15:33;98769.06;;;11.92;87.43
15817;BME280;8009;50.070;8.232;2023-03-13T10:18:12;98767.72;;;11.78;87.54
15817;BME280;8009;50.070;8.232;2023-03-13T10:20:48;98768.56;;;11.79;86.68
15817;BME280;8009;50.070;8.232;2023-03-13T10:23:25;98764.75;;;11.99;87.59
15817;BME280;8009;50.070;8.232;2023-03-13T10:25:54;98769.69;;;12.04;87.20
15817;BME280;8009;50.070;8.232;2023-03-13T10:28:24;98766.50;;;11.90;86.99
15817;BME280;8009;50.070;8.232;2023-03-13T10:30:58;98773.53;;;12.01;87.73
15817;BME280;8009;50.070;8.232;2023-03-13T10:33:31;98771.53;;;12.03;87.78
15817;BME280;8009;50.070;8.232;2023-03-13T10:36:05;98765.72;;;11.80;86.26
15817;BME280;8009;50.070;8.232;2023-03-13T10:38:45;98757.72;;;12.06;87.39
15817;BME280;8009;50.070;8.232;2023-03-13T10:41:22;98758.25;;;12.10;87.72
15817;BME280;8009;50.070;8.232;2023-03-13T10:43:54;98760.78;;;12.11;88.20
15817;BME280;8009;50.070;8.232;2023-03-13T10:46:28;98759.72;;;12.04;89.23
15817;BME280;8009;50.070;8.232;2023-03-13T10:49:00;98758.38;;;11.90;89.24
15817;BME280;8009;50.070;8.232;2023-03-13T10:51:37;98756.94;;;12.14;88.78
15817;BME280;8009;50.070;8.232;2023-03-13T10:54:14;98765.50;;;12.09;89.50
15817;BME280;8009;50.070;8.232;2023-03-13T10:56:43;98760.47;;;11.97;90.12
15817;BME280;8009;50.070;8.232;2023-03-13T10:59:20;98753.31;;;11.87;90.73
15817;BME280;8009;50.070;8.232;2023-03-13T11:01:50;98747.44;;;11.92;90.19
15817;BME280;8009;50.070;8.232;2023-03-13T11:04:27;98746.72;;;11.90;90.01
15817;BME280;8009;50.070;8.232;2023-03-13T11:07:01;98740.41;;;11.99;91.15
15817;BME280;8009;50.070;8.232;2023-03-13T11:09:30;98734.50;;;12.04;91.08
15817;BME280;8009;50.070;8.232;2023-03-13T11:12:03;98730.34;;;11.91;91.42
15817;BME280;8009;50.070;8.232;2023-03-13T11:14:32;98720.53;;;11.90;91.84
15817;BME280;8009;50.070;8.232;2023-03-13T11:17:04;98728.56;;;12.00;90.65
15817;BME280;8009;50.070;8.232;2023-03-13T11:19:54;98728.41;;;12.02;90.48
15817;BME280;8009;50.070;8.232;2023-03-13T11:25:30;98716.19;;;11.98;91.18
15817;BME280;8009;50.070;8.232;2023-03-13T11:28:19;98717.13;;;11.88;91.13
15817;BME280;8009;50.070;8.232;2023-03-13T11:31:03;98712.34;;;12.00;90.03
15817;BME280;8009;50.070;8.232;2023-03-13T11:33:39;98698.44;;;11.95;89.76
15817;BME280;8009;50.070;8.232;2023-03-13T11:36:20;98687.97;;;11.82;90.17
15817;BME280;8009;50.070;8.232;2023-03-13T11:39:01;98688.09;;;12.16;88.26
15817;BME280;8009;50.070;8.232;2023-03-13T11:41:38;98684.72;;;12.14;88.84
15817;BME280;8009;50.070;8.232;2023-03-13T11:44:21;98686.00;;;11.84;89.31
15817;BME280;8009;50.070;8.232;2023-03-13T11:46:59;98685.22;;;11.92;89.39
15817;BME280;8009;50.070;8.232;2023-03-13T11:49:57;98668.78;;;12.11;87.52
15817;BME280;8009;50.070;8.232;2023-03-13T11:52:37;98673.59;;;12.17;87.92
15817;BME280;8009;50.070;8.232;2023-03-13T11:55:34;98670.19;;;12.15;88.11
15817;BME280;8009;50.070;8.232;2023-03-13T11:58:15;98662.00;;;12.07;87.97
15817;BME280;8009;50.070;8.232;2023-03-13T12:00:53;98653.94;;;12.15;88.27
15817;BME280;8009;50.070;8.232;2023-03-13T12:03:33;98642.59;;;12.38;87.27
15817;BME280;8009;50.070;8.232;2023-03-13T12:06:05;98654.88;;;12.32;87.78
15817;BME280;8009;50.070;8.232;2023-03-13T12:08:38;98660.31;;;12.06;87.96
15817;BME280;8009;50.070;8.232;2023-03-13T12:11:14;98658.75;;;12.04;88.17
15817;BME280;8009;50.070;8.232;2023-03-13T12:13:47;98648.69;;;12.14;88.36
15817;BME280;8009;50.070;8.232;2023-03-13T12:16:20;98649.94;;;12.28;87.15
15817;BME280;8009;50.070;8.232;2023-03-13T12:18:51;98650.66;;;12.30;87.31
15817;BME280;8009;50.070;8.232;2023-03-13T12:21:25;98636.50;;;12.10;88.27
15817;BME280;8009;50.070;8.232;2023-03-13T12:24:00;98633.84;;;12.18;88.16
15817;BME280;8009;50.070;8.232;2023-03-13T12:26:40;98633.41;;;12.31;87.40
15817;BME280;8009;50.070;8.232;2023-03-13T12:29:15;98624.06;;;12.25;86.82
15817;BME280;8009;50.070;8.232;2023-03-13T12:31:49;98623.56;;;12.22;87.71
15817;BME280;8009;50.070;8.232;2023-03-13T12:34:23;98624.06;;;12.25;87.66
15817;BME280;8009;50.070;8.232;2023-03-13T12:37:00;98630.38;;;12.34;87.13
15817;BME280;8009;50.070;8.232;2023-03-13T12:39:34;98611.81;;;12.13;88.57
15817;BME280;8009;50.070;8.232;2023-03-13T12:42:27;98602.25;;;12.27;88.28
15817;BME280;8009;50.070;8.232;2023-03-13T12:45:00;98604.47;;;12.31;87.98
15817;BME280;8009;50.070;8.232;2023-03-13T12:47:31;98594.00;;;12.02;89.20
15817;BME280;8009;50.070;8.232;2023-03-13T12:50:26;98581.81;;;12.32;87.98
15817;BME280;8009;50.070;8.232;2023-03-13T12:53:10;98574.66;;;12.23;88.30
15817;BME280;8009;50.070;8.232;2023-03-13T12:56:10;98557.50;;;12.40;87.57
15817;BME280;8009;50.070;8.232;2023-03-13T12:58:47;98547.84;;;12.38;87.38
15817;BME280;8009;50.070;8.232;2023-03-13T13:01:28;98536.44;;;12.60;87.61
15817;BME280;8009;50.070;8.232;2023-03-13T13:03:59;98531.66;;;12.54;88.02
15817;BME280;8009;50.070;8.232;2023-03-13T13:06:50;98525.09;;;12.65;87.31
15817;BME280;8009;50.070;8.232;2023-03-13T13:09:21;98515.63;;;12.69;87.15
15817;BME280;8009;50.070;8.232;2023-03-13T13:11:51;98509.16;;;12.62;87.12
15817;BME280;8009;50.070;8.232;2023-03-13T13:17:37;98482.63;;;12.74;87.36
15817;BME280;8009;50.070;8.232;2023-03-13T13:20:28;98478.56;;;12.69;87.50
15817;BME280;8009;50.070;8.232;2023-03-13T13:23:22;98472.34;;;12.93;86.76
15817;BME280;8009;50.070;8.232;2023-03-13T13:25:53;98460.16;;;13.06;85.65
15817;BME280;8009;50.070;8.232;2023-03-13T13:28:33;98445.75;;;13.30;85.04
15817;BME280;8009;50.070;8.232;2023-03-13T13:37:25;98407.63;;;13.48;83.23
15817;BME280;8009;50.070;8.232;2023-03-13T13:40:17;98391.13;;;13.57;83.24
15817;BME280;8009;50.070;8.232;2023-03-13T13:42:47;98399.19;;;13.26;84.43
15817;BME280;8009;50.070;8.232;2023-03-13T13:45:28;98390.97;;;13.59;82.78
15817;BME280;8009;50.070;8.232;2023-03-13T13:48:20;98373.88;;;13.58;84.00
15817;BME280;8009;50.070;8.232;2023-03-13T13:51:27;98367.53;;;13.74;82.70
15817;BME280;8009;50.070;8.232;2023-03-13T13:53:57;98367.91;;;13.63;83.87